sensor_id;sensor_type;location;lat;lon;timestamp;temperature;humidity
780;DHT22;373;49.342;8.146;2024-03-02T00:01:31;7.90;5.90
780;DHT22;373;49.342;8.146;2024-03-02T00:03:59;7.90;14.00
780;DHT22;373;49.342;8.146;2024-03-02T00:06:26;8.10;1.00
780;DHT22;373;49.342;8.146;2024-03-02T00:08:58;8.30;1.00
780;DHT22;373;49.342;8.146;2024-03-02T00:11:25;8.40;1.00
780;DHT22;373;49.342;8.146;2024-03-02T00:13:53;8.30;99.90
780;DHT22;373;49.342;8.146;2024-03-02T00:16:22;8.20;99.90
780;DHT22;373;49.342;8.146;2024-03-02T00:18:51;8.20;1.00
780;DHT22;373;49.342;8.146;2024-03-02T00:21:18;8.20;1.00
780;DHT22;373;49.342;8.146;2024-03-02T00:23:48;8.10;99.90
780;DHT22;373;49.342;8.146;2024-03-02T00:26:17;7.80;99.90
780;DHT22;373;49.342;8.146;2024-03-02T00:28:44;7.70;99.90
780;DHT22;373;49.342;8.146;2024-03-02T00:31:12;7.80;1.00
780;DHT22;373;49.342;8.146;2024-03-02T00:33:43;7.80;86.10
780;DHT22;373;49.342;8.146;2024-03-02T00:36:12;7.70;99.90
780;DHT22;373;49.342;8.146;2024-03-02T00:38:44;7.70;99.90
780;DHT22;373;49.342;8.146;2024-03-02T00:41:17;7.80;99.90
780;DHT22;373;49.342;8.146;2024-03-02T00:43:47;7.60;99.90
780;DHT22;373;49.342;8.146;2024-03-02T00:46:18;7.30;1.00
780;DHT22;373;49.342;8.146;2024-03-02T00:48:55;7.20;1.00
780;DHT22;373;49.342;8.146;2024-03-02T00:51:24;7.10;1.00
780;DHT22;373;49.342;8.146;2024-03-02T00:53:52;7.10;1.00
780;DHT22;373;49.342;8.146;2024-03-02T00:56:21;7.50;99.90
780;DHT22;373;49.342;8.146;2024-03-02T00:58:50;7.50;99.90
780;DHT22;373;49.342;8.146;2024-03-02T01:01:17;7.30;99.90
780;DHT22;373;49.342;8.146;2024-03-02T01:03:45;7.50;99.90
780;DHT22;373;49.342;8.146;2024-03-02T01:06:16;7.30;1.00
780;DHT22;373;49.342;8.146;2024-03-02T01:08:44;7.60;99.90
780;DHT22;373;49.342;8.146;2024-03-02T01:11:12;7.40;99.90
780;DHT22;373;49.342;8.146;2024-03-02T01:13:39;7.40;99.90
780;DHT22;373;49.342;8.146;2024-03-02T01:16:06;7.10;99.90
780;DHT22;373;49.342;8.146;2024-03-02T01:18:33;7.20;99.90
780;DHT22;373;49.342;8.146;2024-03-02T01:21:00;6.90;99.90
780;DHT22;373;49.342;8.146;2024-03-02T01:23:29;7.20;99.90
780;DHT22;373;49.342;8.146;2024-03-02T01:25:56;7.20;99.90
780;DHT22;373;49.342;8.146;2024-03-02T01:28:23;7.10;99.90
780;DHT22;373;49.342;8.146;2024-03-02T01:30:50;7.20;99.90
780;DHT22;373;49.342;8.146;2024-03-02T01:33:17;7.10;99.90
780;DHT22;373;49.342;8.146;2024-03-02T01:35:44;7.20;99.90
780;DHT22;373;49.342;8.146;2024-03-02T01:38:12;7.20;1.00
780;DHT22;373;49.342;8.146;2024-03-02T01:40:40;7.20;99.90
780;DHT22;373;49.342;8.146;2024-03-02T01:43:10;7.20;30.90
780;DHT22;373;49.342;8.146;2024-03-02T01:45:37;7.20;1.00
780;DHT22;373;49.342;8.146;2024-03-02T01:48:05;7.10;99.90
780;DHT22;373;49.342;8.146;2024-03-02T01:50:33;7.20;95.70
780;DHT22;373;49.342;8.146;2024-03-02T01:53:00;7.30;1.00
780;DHT22;373;49.342;8.146;2024-03-02T01:55:28;6.80;99.90
780;DHT22;373;49.342;8.146;2024-03-02T01:57:57;7.00;99.90
780;DHT22;373;49.342;8.146;2024-03-02T02:00:24;6.90;99.90
780;DHT22;373;49.342;8.146;2024-03-02T02:02:52;6.70;99.90
780;DHT22;373;49.342;8.146;2024-03-02T02:05:19;6.50;1.00
780;DHT22;373;49.342;8.146;2024-03-02T02:07:46;6.70;99.90
780;DHT22;373;49.342;8.146;2024-03-02T02:10:14;6.80;99.90
780;DHT22;373;49.342;8.146;2024-03-02T02:12:41;7.00;99.90
780;DHT22;373;49.342;8.146;2024-03-02T02:15:29;7.10;26.00
780;DHT22;373;49.342;8.146;2024-03-02T02:17:57;7.00;99.90
780;DHT22;373;49.342;8.146;2024-03-02T02:20:25;7.00;99.90
780;DHT22;373;49.342;8.146;2024-03-02T02:22:57;7.20;99.90
780;DHT22;373;49.342;8.146;2024-03-02T02:25:25;6.80;99.90
780;DHT22;373;49.342;8.146;2024-03-02T02:27:52;6.60;1.00
780;DHT22;373;49.342;8.146;2024-03-02T02:30:21;6.70;99.90
780;DHT22;373;49.342;8.146;2024-03-02T02:32:49;6.70;99.90
780;DHT22;373;49.342;8.146;2024-03-02T02:35:15;6.60;99.90
780;DHT22;373;49.342;8.146;2024-03-02T02:37:43;6.60;99.90
780;DHT22;373;49.342;8.146;2024-03-02T02:40:12;6.80;99.90
780;DHT22;373;49.342;8.146;2024-03-02T02:42:40;6.90;99.90
780;DHT22;373;49.342;8.146;2024-03-02T02:45:07;6.80;12.50
780;DHT22;373;49.342;8.146;2024-03-02T02:47:34;6.30;99.90
780;DHT22;373;49.342;8.146;2024-03-02T02:50:02;6.50;1.00
780;DHT22;373;49.342;8.146;2024-03-02T02:52:33;6.50;1.00
780;DHT22;373;49.342;8.146;2024-03-02T02:55:03;6.60;99.90
780;DHT22;373;49.342;8.146;2024-03-02T02:57:32;6.60;99.90
780;DHT22;373;49.342;8.146;2024-03-02T03:00:02;6.80;99.90
780;DHT22;373;49.342;8.146;2024-03-02T03:02:37;6.60;99.90
780;DHT22;373;49.342;8.146;2024-03-02T03:05:06;6.30;99.90
780;DHT22;373;49.342;8.146;2024-03-02T03:07:33;6.30;99.90
780;DHT22;373;49.342;8.146;2024-03-02T03:10:00;6.40;99.90
780;DHT22;373;49.342;8.146;2024-03-02T03:12:29;6.30;99.90
780;DHT22;373;49.342;8.146;2024-03-02T03:14:58;6.10;1.00
780;DHT22;373;49.342;8.146;2024-03-02T03:17:25;6.30;1.00
780;DHT22;373;49.342;8.146;2024-03-02T03:19:53;6.20;1.00
780;DHT22;373;49.342;8.146;2024-03-02T03:22:20;6.20;99.90
780;DHT22;373;49.342;8.146;2024-03-02T03:24:47;6.00;1.00
780;DHT22;373;49.342;8.146;2024-03-02T03:27:14;6.00;1.00
780;DHT22;373;49.342;8.146;2024-03-02T03:29:41;5.80;1.00
780;DHT22;373;49.342;8.146;2024-03-02T03:32:10;6.20;1.00
780;DHT22;373;49.342;8.146;2024-03-02T03:34:37;6.30;99.90
780;DHT22;373;49.342;8.146;2024-03-02T03:37:04;6.50;99.90
780;DHT22;373;49.342;8.146;2024-03-02T03:39:31;6.20;99.90
780;DHT22;373;49.342;8.146;2024-03-02T03:42:00;6.30;99.90
780;DHT22;373;49.342;8.146;2024-03-02T03:44:27;6.60;30.20
780;DHT22;373;49.342;8.146;2024-03-02T03:46:54;6.60;53.50
780;DHT22;373;49.342;8.146;2024-03-02T03:49:23;6.50;99.90
780;DHT22;373;49.342;8.146;2024-03-02T03:51:50;6.50;1.00
780;DHT22;373;49.342;8.146;2024-03-02T03:54:17;5.90;65.00
780;DHT22;373;49.342;8.146;2024-03-02T03:56:44;5.70;1.00
780;DHT22;373;49.342;8.146;2024-03-02T03:59:11;5.50;1.00
780;DHT22;373;49.342;8.146;2024-03-02T04:01:38;5.60;1.00
780;DHT22;373;49.342;8.146;2024-03-02T04:04:08;5.70;1.00
780;DHT22;373;49.342;8.146;2024-03-02T04:06:37;5.60;1.00
780;DHT22;373;49.342;8.146;2024-03-02T04:09:04;5.70;1.00
780;DHT22;373;49.342;8.146;2024-03-02T04:11:31;5.80;1.00
780;DHT22;373;49.342;8.146;2024-03-02T04:13:58;6.20;1.00
780;DHT22;373;49.342;8.146;2024-03-02T04:16:25;6.30;99.90
780;DHT22;373;49.342;8.146;2024-03-02T04:18:52;5.90;99.90
780;DHT22;373;49.342;8.146;2024-03-02T04:21:20;5.80;99.90
780;DHT22;373;49.342;8.146;2024-03-02T04:23:48;6.00;99.90
780;DHT22;373;49.342;8.146;2024-03-02T04:26:15;6.00;99.90
780;DHT22;373;49.342;8.146;2024-03-02T04:28:47;6.10;99.90
780;DHT22;373;49.342;8.146;2024-03-02T04:31:15;6.10;99.90
780;DHT22;373;49.342;8.146;2024-03-02T04:33:42;6.10;11.60
780;DHT22;373;49.342;8.146;2024-03-02T04:36:09;6.20;1.00
780;DHT22;373;49.342;8.146;2024-03-02T04:38:36;6.30;25.30
780;DHT22;373;49.342;8.146;2024-03-02T04:41:06;6.10;99.90
780;DHT22;373;49.342;8.146;2024-03-02T04:43:33;5.90;1.00
780;DHT22;373;49.342;8.146;2024-03-02T04:46:00;6.20;1.00
780;DHT22;373;49.342;8.146;2024-03-02T04:48:28;6.00;1.00
780;DHT22;373;49.342;8.146;2024-03-02T04:50:55;6.00;1.00
780;DHT22;373;49.342;8.146;2024-03-02T04:53:22;5.90;1.00
780;DHT22;373;49.342;8.146;2024-03-02T04:55:50;5.80;1.00
780;DHT22;373;49.342;8.146;2024-03-02T04:58:54;5.70;1.00
780;DHT22;373;49.342;8.146;2024-03-02T05:01:22;5.50;23.30
780;DHT22;373;49.342;8.146;2024-03-02T05:03:49;5.50;56.30
780;DHT22;373;49.342;8.146;2024-03-02T05:06:16;5.40;64.70
780;DHT22;373;49.342;8.146;2024-03-02T05:08:44;5.30;99.80
780;DHT22;373;49.342;8.146;2024-03-02T05:11:11;5.30;99.90
780;DHT22;373;49.342;8.146;2024-03-02T05:14:20;5.50;99.90
780;DHT22;373;49.342;8.146;2024-03-02T05:16:47;5.60;99.90
780;DHT22;373;49.342;8.146;2024-03-02T05:19:15;5.40;99.90
780;DHT22;373;49.342;8.146;2024-03-02T05:21:42;5.60;99.90
780;DHT22;373;49.342;8.146;2024-03-02T05:24:09;5.80;93.50
780;DHT22;373;49.342;8.146;2024-03-02T05:26:36;5.70;99.90
780;DHT22;373;49.342;8.146;2024-03-02T05:29:04;5.80;99.90
780;DHT22;373;49.342;8.146;2024-03-02T05:31:32;6.00;99.90
780;DHT22;373;49.342;8.146;2024-03-02T05:33:59;5.90;99.90
780;DHT22;373;49.342;8.146;2024-03-02T05:36:26;5.90;99.90
780;DHT22;373;49.342;8.146;2024-03-02T05:38:53;5.90;99.90
780;DHT22;373;49.342;8.146;2024-03-02T05:41:20;6.00;99.90
780;DHT22;373;49.342;8.146;2024-03-02T05:43:47;6.10;99.90
780;DHT22;373;49.342;8.146;2024-03-02T05:46:15;6.10;99.90
780;DHT22;373;49.342;8.146;2024-03-02T05:48:43;6.10;99.90
780;DHT22;373;49.342;8.146;2024-03-02T05:51:10;6.10;99.90
780;DHT22;373;49.342;8.146;2024-03-02T05:53:38;6.00;99.90
780;DHT22;373;49.342;8.146;2024-03-02T05:56:05;6.00;99.90
780;DHT22;373;49.342;8.146;2024-03-02T05:58:32;6.00;99.90
780;DHT22;373;49.342;8.146;2024-03-02T06:01:13;6.10;99.90
780;DHT22;373;49.342;8.146;2024-03-02T06:03:40;6.20;99.90
780;DHT22;373;49.342;8.146;2024-03-02T06:06:09;6.30;99.90
780;DHT22;373;49.342;8.146;2024-03-02T06:08:36;6.60;96.30
780;DHT22;373;49.342;8.146;2024-03-02T06:11:03;6.80;47.70
780;DHT22;373;49.342;8.146;2024-03-02T06:13:30;6.90;35.50
780;DHT22;373;49.342;8.146;2024-03-02T06:15:57;7.00;1.00
780;DHT22;373;49.342;8.146;2024-03-02T06:18:24;6.90;1.00
780;DHT22;373;49.342;8.146;2024-03-02T06:20:51;6.80;1.00
780;DHT22;373;49.342;8.146;2024-03-02T06:23:20;6.80;5.50
780;DHT22;373;49.342;8.146;2024-03-02T06:25:47;6.70;3.90
780;DHT22;373;49.342;8.146;2024-03-02T06:28:14;6.50;20.40
780;DHT22;373;49.342;8.146;2024-03-02T06:30:41;6.50;67.20
780;DHT22;373;49.342;8.146;2024-03-02T06:33:09;6.60;61.10
780;DHT22;373;49.342;8.146;2024-03-02T06:35:36;6.80;34.60
780;DHT22;373;49.342;8.146;2024-03-02T06:38:03;6.90;29.40
780;DHT22;373;49.342;8.146;2024-03-02T06:40:32;7.10;1.00
780;DHT22;373;49.342;8.146;2024-03-02T06:42:59;7.00;1.00
780;DHT22;373;49.342;8.146;2024-03-02T06:45:26;7.00;1.00
780;DHT22;373;49.342;8.146;2024-03-02T06:47:56;6.80;4.40
780;DHT22;373;49.342;8.146;2024-03-02T06:50:23;6.80;45.20
780;DHT22;373;49.342;8.146;2024-03-02T06:52:50;6.90;38.40
780;DHT22;373;49.342;8.146;2024-03-02T06:55:18;6.90;41.20
780;DHT22;373;49.342;8.146;2024-03-02T06:57:46;7.10;24.00
780;DHT22;373;49.342;8.146;2024-03-02T07:00:14;7.20;1.00
780;DHT22;373;49.342;8.146;2024-03-02T07:02:43;7.00;21.20
780;DHT22;373;49.342;8.146;2024-03-02T07:05:11;7.20;34.50
780;DHT22;373;49.342;8.146;2024-03-02T07:07:38;7.40;34.40
780;DHT22;373;49.342;8.146;2024-03-02T07:10:06;7.90;5.00
780;DHT22;373;49.342;8.146;2024-03-02T07:12:34;8.10;1.00
780;DHT22;373;49.342;8.146;2024-03-02T07:15:03;8.00;1.00
780;DHT22;373;49.342;8.146;2024-03-02T07:17:55;8.10;1.00
780;DHT22;373;49.342;8.146;2024-03-02T07:20:22;8.50;1.00
780;DHT22;373;49.342;8.146;2024-03-02T07:22:49;8.50;1.00
780;DHT22;373;49.342;8.146;2024-03-02T07:25:16;8.80;1.00
780;DHT22;373;49.342;8.146;2024-03-02T07:27:44;8.80;1.00
780;DHT22;373;49.342;8.146;2024-03-02T07:30:15;8.80;1.00
780;DHT22;373;49.342;8.146;2024-03-02T07:32:43;8.50;1.00
780;DHT22;373;49.342;8.146;2024-03-02T07:35:12;8.30;1.00
780;DHT22;373;49.342;8.146;2024-03-02T07:37:41;8.10;1.00
780;DHT22;373;49.342;8.146;2024-03-02T07:40:09;7.80;1.00
780;DHT22;373;49.342;8.146;2024-03-02T07:42:37;8.00;1.00
780;DHT22;373;49.342;8.146;2024-03-02T07:45:06;8.10;1.00
780;DHT22;373;49.342;8.146;2024-03-02T07:47:35;8.00;1.00
780;DHT22;373;49.342;8.146;2024-03-02T07:50:02;7.90;1.00
780;DHT22;373;49.342;8.146;2024-03-02T07:52:32;7.90;1.00
780;DHT22;373;49.342;8.146;2024-03-02T07:54:59;8.00;1.00
780;DHT22;373;49.342;8.146;2024-03-02T07:57:26;8.10;1.00
780;DHT22;373;49.342;8.146;2024-03-02T07:59:53;8.20;1.00
780;DHT22;373;49.342;8.146;2024-03-02T08:02:20;8.10;1.00
780;DHT22;373;49.342;8.146;2024-03-02T08:04:49;8.20;1.00
780;DHT22;373;49.342;8.146;2024-03-02T08:07:16;8.20;1.00
780;DHT22;373;49.342;8.146;2024-03-02T08:09:43;8.40;1.00
780;DHT22;373;49.342;8.146;2024-03-02T08:12:10;8.70;1.00
780;DHT22;373;49.342;8.146;2024-03-02T08:14:37;8.80;99.90
780;DHT22;373;49.342;8.146;2024-03-02T08:17:05;9.00;99.90
780;DHT22;373;49.342;8.146;2024-03-02T08:19:35;9.20;99.90
780;DHT22;373;49.342;8.146;2024-03-02T08:22:04;9.20;99.90
780;DHT22;373;49.342;8.146;2024-03-02T08:24:31;9.20;1.00
780;DHT22;373;49.342;8.146;2024-03-02T08:26:59;9.30;65.40
780;DHT22;373;49.342;8.146;2024-03-02T08:29:26;9.60;1.00
780;DHT22;373;49.342;8.146;2024-03-02T08:31:53;10.30;99.90
780;DHT22;373;49.342;8.146;2024-03-02T08:34:20;10.30;7.90
780;DHT22;373;49.342;8.146;2024-03-02T08:36:47;10.70;1.00
780;DHT22;373;49.342;8.146;2024-03-02T08:39:16;11.30;1.00
780;DHT22;373;49.342;8.146;2024-03-02T08:41:45;11.00;1.00
780;DHT22;373;49.342;8.146;2024-03-02T08:44:12;10.70;69.20
780;DHT22;373;49.342;8.146;2024-03-02T08:46:40;10.50;99.90
780;DHT22;373;49.342;8.146;2024-03-02T08:49:07;9.50;1.00
780;DHT22;373;49.342;8.146;2024-03-02T08:51:34;10.10;1.00
780;DHT22;373;49.342;8.146;2024-03-02T08:54:01;10.40;1.00
780;DHT22;373;49.342;8.146;2024-03-02T08:56:31;10.90;1.00
780;DHT22;373;49.342;8.146;2024-03-02T08:58:58;11.20;12.90
780;DHT22;373;49.342;8.146;2024-03-02T09:01:25;11.90;99.90
780;DHT22;373;49.342;8.146;2024-03-02T09:03:52;12.60;99.90
780;DHT22;373;49.342;8.146;2024-03-02T09:06:19;12.40;99.90
780;DHT22;373;49.342;8.146;2024-03-02T09:08:47;11.90;99.90
780;DHT22;373;49.342;8.146;2024-03-02T09:11:15;12.60;1.00
780;DHT22;373;49.342;8.146;2024-03-02T09:13:44;13.10;1.00
780;DHT22;373;49.342;8.146;2024-03-02T09:16:11;13.00;1.00
780;DHT22;373;49.342;8.146;2024-03-02T09:18:40;12.80;1.00
780;DHT22;373;49.342;8.146;2024-03-02T09:21:07;12.80;1.00
780;DHT22;373;49.342;8.146;2024-03-02T09:23:34;12.70;1.00
780;DHT22;373;49.342;8.146;2024-03-02T09:26:01;13.30;1.00
780;DHT22;373;49.342;8.146;2024-03-02T09:28:29;14.10;1.00
780;DHT22;373;49.342;8.146;2024-03-02T09:31:00;14.50;1.00
780;DHT22;373;49.342;8.146;2024-03-02T09:33:27;15.60;1.00
780;DHT22;373;49.342;8.146;2024-03-02T09:35:55;15.70;99.90
780;DHT22;373;49.342;8.146;2024-03-02T09:38:22;14.80;99.90
780;DHT22;373;49.342;8.146;2024-03-02T09:40:50;14.90;99.90
780;DHT22;373;49.342;8.146;2024-03-02T09:43:18;14.10;1.00
780;DHT22;373;49.342;8.146;2024-03-02T09:45:46;13.10;1.00
780;DHT22;373;49.342;8.146;2024-03-02T09:48:15;12.20;17.70
780;DHT22;373;49.342;8.146;2024-03-02T09:50:44;11.50;1.00
780;DHT22;373;49.342;8.146;2024-03-02T09:53:14;11.10;99.90
780;DHT22;373;49.342;8.146;2024-03-02T09:55:41;11.10;99.90
780;DHT22;373;49.342;8.146;2024-03-02T09:58:12;11.20;1.00
780;DHT22;373;49.342;8.146;2024-03-02T10:00:39;11.30;99.90
780;DHT22;373;49.342;8.146;2024-03-02T10:03:11;11.20;99.90
780;DHT22;373;49.342;8.146;2024-03-02T10:05:50;11.10;1.00
780;DHT22;373;49.342;8.146;2024-03-02T10:08:18;11.60;99.90
780;DHT22;373;49.342;8.146;2024-03-02T10:11:28;11.60;99.90
780;DHT22;373;49.342;8.146;2024-03-02T10:14:32;12.00;99.90
780;DHT22;373;49.342;8.146;2024-03-02T10:17:51;12.40;1.00
780;DHT22;373;49.342;8.146;2024-03-02T10:20:41;12.50;99.90
780;DHT22;373;49.342;8.146;2024-03-02T10:23:13;12.70;1.00
780;DHT22;373;49.342;8.146;2024-03-02T10:25:41;12.50;99.90
780;DHT22;373;49.342;8.146;2024-03-02T10:28:09;12.20;99.90
780;DHT22;373;49.342;8.146;2024-03-02T10:30:36;12.10;1.00
780;DHT22;373;49.342;8.146;2024-03-02T10:33:05;12.00;1.00
780;DHT22;373;49.342;8.146;2024-03-02T10:35:33;11.80;1.00
780;DHT22;373;49.342;8.146;2024-03-02T10:38:04;12.00;1.00
780;DHT22;373;49.342;8.146;2024-03-02T10:40:33;12.40;1.00
780;DHT22;373;49.342;8.146;2024-03-02T10:43:01;12.80;99.90
780;DHT22;373;49.342;8.146;2024-03-02T10:45:29;13.30;99.90
780;DHT22;373;49.342;8.146;2024-03-02T10:47:57;14.80;1.00
780;DHT22;373;49.342;8.146;2024-03-02T10:50:24;14.80;1.00
780;DHT22;373;49.342;8.146;2024-03-02T10:52:51;14.90;1.00
780;DHT22;373;49.342;8.146;2024-03-02T10:55:19;15.90;1.00
780;DHT22;373;49.342;8.146;2024-03-02T10:57:51;17.30;99.90
780;DHT22;373;49.342;8.146;2024-03-02T11:00:19;16.90;99.90
780;DHT22;373;49.342;8.146;2024-03-02T11:02:52;16.50;99.90
780;DHT22;373;49.342;8.146;2024-03-02T11:05:26;16.80;99.90
780;DHT22;373;49.342;8.146;2024-03-02T11:07:57;17.30;99.90
780;DHT22;373;49.342;8.146;2024-03-02T11:10:34;17.10;99.90
780;DHT22;373;49.342;8.146;2024-03-02T11:13:05;17.50;99.90
780;DHT22;373;49.342;8.146;2024-03-02T11:15:35;18.80;99.90
780;DHT22;373;49.342;8.146;2024-03-02T11:18:04;19.60;99.90
780;DHT22;373;49.342;8.146;2024-03-02T11:20:37;20.20;99.90
780;DHT22;373;49.342;8.146;2024-03-02T11:23:06;21.00;99.90
780;DHT22;373;49.342;8.146;2024-03-02T11:25:33;20.40;99.90
780;DHT22;373;49.342;8.146;2024-03-02T11:28:04;20.10;99.90
780;DHT22;373;49.342;8.146;2024-03-02T11:30:50;19.50;99.90
780;DHT22;373;49.342;8.146;2024-03-02T11:33:25;18.40;99.90
780;DHT22;373;49.342;8.146;2024-03-02T11:35:53;19.00;99.90
780;DHT22;373;49.342;8.146;2024-03-02T11:38:20;18.80;99.90
780;DHT22;373;49.342;8.146;2024-03-02T11:40:47;19.40;99.90
780;DHT22;373;49.342;8.146;2024-03-02T11:43:16;19.10;99.90
780;DHT22;373;49.342;8.146;2024-03-02T11:45:43;19.40;99.90
780;DHT22;373;49.342;8.146;2024-03-02T11:48:11;19.50;99.90
780;DHT22;373;49.342;8.146;2024-03-02T11:50:42;19.20;99.90
780;DHT22;373;49.342;8.146;2024-03-02T11:53:10;19.00;99.90
780;DHT22;373;49.342;8.146;2024-03-02T11:55:39;18.60;99.90
780;DHT22;373;49.342;8.146;2024-03-02T11:58:06;17.70;99.90
780;DHT22;373;49.342;8.146;2024-03-02T12:00:35;17.00;99.90
780;DHT22;373;49.342;8.146;2024-03-02T12:03:03;16.80;99.90
780;DHT22;373;49.342;8.146;2024-03-02T12:08:20;15.20;99.90
780;DHT22;373;49.342;8.146;2024-03-02T12:10:59;15.20;99.90
780;DHT22;373;49.342;8.146;2024-03-02T12:13:30;15.20;99.90
780;DHT22;373;49.342;8.146;2024-03-02T12:15:58;15.50;99.90
780;DHT22;373;49.342;8.146;2024-03-02T12:18:25;15.90;99.90
780;DHT22;373;49.342;8.146;2024-03-02T12:20:52;16.00;99.90
780;DHT22;373;49.342;8.146;2024-03-02T12:23:23;15.80;99.90
780;DHT22;373;49.342;8.146;2024-03-02T12:25:50;15.70;99.90
780;DHT22;373;49.342;8.146;2024-03-02T12:28:17;15.60;99.90
780;DHT22;373;49.342;8.146;2024-03-02T12:30:45;15.70;99.90
780;DHT22;373;49.342;8.146;2024-03-02T12:33:14;16.10;99.90
780;DHT22;373;49.342;8.146;2024-03-02T12:35:41;16.00;99.90
780;DHT22;373;49.342;8.146;2024-03-02T12:38:09;15.90;99.90
780;DHT22;373;49.342;8.146;2024-03-02T12:40:37;16.20;99.90
780;DHT22;373;49.342;8.146;2024-03-02T12:43:05;15.50;99.90
780;DHT22;373;49.342;8.146;2024-03-02T12:45:32;15.30;99.90
780;DHT22;373;49.342;8.146;2024-03-02T12:48:00;15.50;99.90
780;DHT22;373;49.342;8.146;2024-03-02T12:50:28;15.70;99.90
780;DHT22;373;49.342;8.146;2024-03-02T12:52:56;15.70;99.90
780;DHT22;373;49.342;8.146;2024-03-02T12:55:23;16.00;99.90
780;DHT22;373;49.342;8.146;2024-03-02T12:57:51;16.00;99.90
780;DHT22;373;49.342;8.146;2024-03-02T13:00:19;15.60;99.90
780;DHT22;373;49.342;8.146;2024-03-02T13:02:46;15.50;99.90
780;DHT22;373;49.342;8.146;2024-03-02T13:05:16;15.60;99.90
780;DHT22;373;49.342;8.146;2024-03-02T13:07:47;16.00;99.90
780;DHT22;373;49.342;8.146;2024-03-02T13:10:14;16.60;99.90
780;DHT22;373;49.342;8.146;2024-03-02T13:12:41;16.80;99.90
780;DHT22;373;49.342;8.146;2024-03-02T13:15:08;17.00;99.90
780;DHT22;373;49.342;8.146;2024-03-02T13:17:36;16.50;99.90
780;DHT22;373;49.342;8.146;2024-03-02T13:20:04;16.30;99.90
780;DHT22;373;49.342;8.146;2024-03-02T13:22:33;16.50;99.90
780;DHT22;373;49.342;8.146;2024-03-02T13:25:02;16.50;99.90
780;DHT22;373;49.342;8.146;2024-03-02T13:27:30;16.20;99.90
780;DHT22;373;49.342;8.146;2024-03-02T13:29:58;16.30;99.90
780;DHT22;373;49.342;8.146;2024-03-02T13:32:25;16.50;99.90
780;DHT22;373;49.342;8.146;2024-03-02T13:34:52;16.60;99.90
780;DHT22;373;49.342;8.146;2024-03-02T13:37:20;16.20;99.90
780;DHT22;373;49.342;8.146;2024-03-02T13:39:47;16.10;99.90
780;DHT22;373;49.342;8.146;2024-03-02T13:42:15;16.50;99.90
780;DHT22;373;49.342;8.146;2024-03-02T13:44:43;16.90;99.90
780;DHT22;373;49.342;8.146;2024-03-02T13:47:11;17.00;99.90
780;DHT22;373;49.342;8.146;2024-03-02T13:49:38;17.00;99.90
780;DHT22;373;49.342;8.146;2024-03-02T13:52:09;16.50;99.90
780;DHT22;373;49.342;8.146;2024-03-02T13:54:39;16.60;99.90
780;DHT22;373;49.342;8.146;2024-03-02T13:57:06;16.40;99.90
780;DHT22;373;49.342;8.146;2024-03-02T13:59:35;16.50;99.90
780;DHT22;373;49.342;8.146;2024-03-02T14:02:03;16.40;99.90
780;DHT22;373;49.342;8.146;2024-03-02T14:04:31;16.50;99.90
780;DHT22;373;49.342;8.146;2024-03-02T14:06:59;16.80;99.90
780;DHT22;373;49.342;8.146;2024-03-02T14:09:26;16.90;99.90
780;DHT22;373;49.342;8.146;2024-03-02T14:11:54;16.80;99.90
780;DHT22;373;49.342;8.146;2024-03-02T14:14:21;16.70;99.90
780;DHT22;373;49.342;8.146;2024-03-02T14:16:50;16.60;99.90
780;DHT22;373;49.342;8.146;2024-03-02T14:19:17;16.50;99.90
780;DHT22;373;49.342;8.146;2024-03-02T14:21:44;16.60;99.90
780;DHT22;373;49.342;8.146;2024-03-02T14:24:11;16.50;99.90
780;DHT22;373;49.342;8.146;2024-03-02T14:26:38;16.20;99.90
780;DHT22;373;49.342;8.146;2024-03-02T14:29:06;16.30;99.90
780;DHT22;373;49.342;8.146;2024-03-02T14:31:33;16.50;99.90
780;DHT22;373;49.342;8.146;2024-03-02T14:34:02;16.40;99.90
780;DHT22;373;49.342;8.146;2024-03-02T14:36:29;16.40;99.90
780;DHT22;373;49.342;8.146;2024-03-02T14:38:56;16.40;99.90
780;DHT22;373;49.342;8.146;2024-03-02T14:41:24;16.30;99.90
780;DHT22;373;49.342;8.146;2024-03-02T14:43:50;16.40;99.90
780;DHT22;373;49.342;8.146;2024-03-02T14:46:17;16.40;99.90
780;DHT22;373;49.342;8.146;2024-03-02T14:48:46;16.50;99.90
780;DHT22;373;49.342;8.146;2024-03-02T14:51:14;16.60;99.90
780;DHT22;373;49.342;8.146;2024-03-02T14:53:41;16.20;99.90
780;DHT22;373;49.342;8.146;2024-03-02T14:56:08;16.20;99.90
780;DHT22;373;49.342;8.146;2024-03-02T14:58:36;16.30;99.90
780;DHT22;373;49.342;8.146;2024-03-02T15:01:03;16.60;99.90
780;DHT22;373;49.342;8.146;2024-03-02T15:03:31;16.60;99.90
780;DHT22;373;49.342;8.146;2024-03-02T15:05:58;16.70;99.90
780;DHT22;373;49.342;8.146;2024-03-02T15:08:27;16.60;99.90
780;DHT22;373;49.342;8.146;2024-03-02T15:10:54;16.40;99.90
780;DHT22;373;49.342;8.146;2024-03-02T15:13:23;16.00;99.90
780;DHT22;373;49.342;8.146;2024-03-02T15:15:51;16.00;99.90
780;DHT22;373;49.342;8.146;2024-03-02T15:18:18;16.20;99.90
780;DHT22;373;49.342;8.146;2024-03-02T15:20:45;16.00;99.90
780;DHT22;373;49.342;8.146;2024-03-02T15:23:12;16.20;99.90
780;DHT22;373;49.342;8.146;2024-03-02T15:25:41;16.50;99.90
780;DHT22;373;49.342;8.146;2024-03-02T15:28:08;16.70;99.90
780;DHT22;373;49.342;8.146;2024-03-02T15:30:35;16.80;99.90
780;DHT22;373;49.342;8.146;2024-03-02T15:33:02;17.10;99.90
780;DHT22;373;49.342;8.146;2024-03-02T15:35:29;17.30;99.90
780;DHT22;373;49.342;8.146;2024-03-02T15:37:56;17.00;99.90
780;DHT22;373;49.342;8.146;2024-03-02T15:40:23;16.70;99.90
780;DHT22;373;49.342;8.146;2024-03-02T15:42:52;16.50;99.90
780;DHT22;373;49.342;8.146;2024-03-02T15:45:19;16.50;99.90
780;DHT22;373;49.342;8.146;2024-03-02T15:47:46;16.70;99.90
780;DHT22;373;49.342;8.146;2024-03-02T15:50:13;16.90;99.90
780;DHT22;373;49.342;8.146;2024-03-02T15:52:40;17.10;99.90
780;DHT22;373;49.342;8.146;2024-03-02T15:55:08;17.30;99.90
780;DHT22;373;49.342;8.146;2024-03-02T15:57:35;17.40;99.90
780;DHT22;373;49.342;8.146;2024-03-02T16:00:05;17.70;99.90
780;DHT22;373;49.342;8.146;2024-03-02T16:02:37;17.80;99.90
780;DHT22;373;49.342;8.146;2024-03-02T16:05:05;17.40;99.90
780;DHT22;373;49.342;8.146;2024-03-02T16:07:32;17.50;99.90
780;DHT22;373;49.342;8.146;2024-03-02T16:09:59;17.70;99.90
780;DHT22;373;49.342;8.146;2024-03-02T16:12:30;17.50;99.90
780;DHT22;373;49.342;8.146;2024-03-02T16:14:57;17.50;99.90
780;DHT22;373;49.342;8.146;2024-03-02T16:17:25;17.50;99.90
780;DHT22;373;49.342;8.146;2024-03-02T16:19:52;17.50;99.90
780;DHT22;373;49.342;8.146;2024-03-02T16:22:20;17.30;99.90
780;DHT22;373;49.342;8.146;2024-03-02T16:24:47;17.50;99.90
780;DHT22;373;49.342;8.146;2024-03-02T16:27:14;17.60;99.90
780;DHT22;373;49.342;8.146;2024-03-02T16:29:41;17.70;99.90
780;DHT22;373;49.342;8.146;2024-03-02T16:32:08;17.60;99.90
780;DHT22;373;49.342;8.146;2024-03-02T16:34:36;17.30;99.90
780;DHT22;373;49.342;8.146;2024-03-02T16:37:04;17.20;99.90
780;DHT22;373;49.342;8.146;2024-03-02T16:39:31;17.00;99.90
780;DHT22;373;49.342;8.146;2024-03-02T16:41:58;16.70;99.90
780;DHT22;373;49.342;8.146;2024-03-02T16:44:25;16.50;99.90
780;DHT22;373;49.342;8.146;2024-03-02T16:46:52;16.20;99.90
780;DHT22;373;49.342;8.146;2024-03-02T16:49:19;16.20;99.90
780;DHT22;373;49.342;8.146;2024-03-02T16:51:48;16.10;99.90
780;DHT22;373;49.342;8.146;2024-03-02T16:54:15;16.10;99.90
780;DHT22;373;49.342;8.146;2024-03-02T16:56:43;16.10;99.90
780;DHT22;373;49.342;8.146;2024-03-02T16:59:10;16.10;99.90
780;DHT22;373;49.342;8.146;2024-03-02T17:01:37;16.20;99.90